Pagrindinis puslapis
METAR-TAF:

METAR-TAF

Oro uostai :

Viktorija, Mahė, Seišeliai

platuma: 04-40S, ilguma: 055-31E, Aukštis: 3 m

Dabartinis oras

Ataskaita buvo paskelbta 59 minutes, ne 05:00 UTC
Vėjas 3 kt iš Šiaurės/Šiaurės Rytų, svyruoja nuo Šiaurės ir Rytų/Šiaurės Rytų
Temperatūra 31°C
Drėgmė 71%
Slėgis 1012 hPa
Matomumas 10 km arba daugiau
Mažai debesys ne aukštis 1800 ft, Liūtiniai kamuoliniai debesys.
Išsisklaidę debesys ne aukštis 2200 ft

METAR: FSIA 100500Z 02003KT 350V060 9999 FEW018CB SCT022 31/25 Q1012 NOSIG

Laikas: 09:59 (05:59 UTC)

Prognozė

Ataskaita buvo paskelbta 54 minutes, ne 05:05 UTC
Prognozė galioja nuo 10 metu 06 UTC su 11 metu 06 UTC
Vėjas 5 kt iš Šiaurės/Šiaurės Rytų
Matomumas 10 km arba daugiau
Išsisklaidę debesys ne aukštis 2200 ft
Laikinai
nuo 10 metu 08 UTC su 10 metu 12 UTC
Matomumas: 8000 m
Mažai debesys ne aukštis 1000 ft
Mažai debesys ne aukštis 1700 ft, Liūtiniai kamuoliniai debesys.
Su prošvaistėmis ne aukštis 1900 ft
lietus

TAF: FSIA 100505Z 1006/1106 02005KT 9999 SCT022 TEMPO 1008/1012 8000 -SHRA FEW010 FEW017CB BKN019

Orai ataskaitas ir orų prognozės (METAR, TAF).

turimą stotys yra geltonos ir raudonos taškus žemėlapyje.

Perkelti pele per norėdami pamatyti stoties vardą.

Tada spustelėkite, norėdami matyti oro stebėjimo ir prognozės.

Norėdami pakeisti žemėlapį: spustelėkite ant žalios mygtukų su juodo kryžiaus žemyn,; žalią mygtuką su brūkšneliu, jei norite nutolinti; arba žalių rodyklių gretimoms žemėlapius.


METAR-TAF: